Data for 11/22/2016

Time Sea-Level Adjusted Pressure Absolute Pressure Temperature Relative Humidity Dew Point   
(mb) (inHg) (mb) (inHg) (C) (F) (%) (C) (F)
00:05 1016 30 846 24.98 2.1 35.8 56 -5.7 21.8
00:10 1016 30 846 24.98 2 35.7 57 -5.6 21.9
00:15 1017 30.03 846 24.98 1.9 35.3 57 -5.7 21.8
00:20 1017 30.03 846 24.98 1.8 35.2 58 -5.7 21.7
00:25 1017 30.03 846 24.98 1.7 35 58 -5.8 21.6
00:30 1017 30.03 846 24.98 1.7 35 57 -5.9 21.5
00:35 1017 30.03 846 24.98 1.6 34.9 59 -5.5 22.1
00:40 1017 30.03 846 24.98 1.3 34.3 61 -5.5 22.1
00:45 1017 30.03 846 24.98 0.9 33.6 63 -5.5 22.2
00:50 1017 30.03 846 24.98 0.5 33 64 -5.5 22.2
00:55 1017 30.03 846 24.98 0.3 32.6 65 -5.5 22
01:00 1017 30.03 846 24.98 0.3 32.5 66 -5.4 22.2
01:05 1017 30.03 846 24.98 0.3 32.5 65 -5.6 21.9
01:10 1017 30.03 846 24.98 0.4 32.8 64 -5.7 21.7
01:15 1017 30.03 846 24.98 0.5 33 64 -5.5 22.2
01:20 1017 30.03 846 24.98 0.3 32.5 64 -5.7 21.8
01:25 1017 30.03 846 24.98 0.4 32.7 64 -5.7 21.7
01:30 1017 30.03 846 24.98 0.7 33.2 63 -5.7 21.8
01:35 1017 30.03 846 24.98 0.8 33.4 63 -5.6 22
01:40 1017 30.03 846 24.98 0.7 33.2 64 -5.4 22.2
01:45 1017 30.03 846 24.98 0.6 33 64 -5.4 22.3
01:50 1017 30.03 846 24.98 0.5 32.8 65 -5.3 22.4
01:55 1017 30.03 846 24.98 0.4 32.7 65 -5.4 22.2
02:00 1017 30.03 846 24.98 0.5 32.8 65 -5.4 22.2
02:05 1017 30.03 846 24.98 0.4 32.7 66 -5.2 22.6
02:10 1017 30.03 846 24.98 0.1 32.2 67 -5.3 22.4
02:15 1017 30.03 846 24.98 0.2 32.3 67 -5.4 22.4
02:20 1017 30.03 846 24.98 0 32.1 67 -5.3 22.4
02:25 1017 30.03 847 25.01 0.1 32.2 66 -5.4 22.3
02:30 1017 30.03 847 25.01 0.3 32.5 67 -5.2 22.7
02:35 1017 30.03 847 25.01 0 32.1 67 -5.3 22.4
02:40 1018 30.06 847 25.01 0.2 32.3 66 -5.5 22.2
02:45 1018 30.06 847 25.01 0.4 32.7 65 -5.4 22.2
02:50 1018 30.06 847 25.01 0.4 32.7 67 -5 23
02:55 1018 30.06 847 25.01 -0.1 31.8 69 -5.2 22.7
03:00 1018 30.06 847 25.01 -0.4 31.3 70 -5.3 22.5
03:05 1018 30.06 847 25.01 -0.6 30.9 70 -5.3 22.4
03:10 1018 30.06 847 25.01 -0.7 30.8 72 -5.2 22.7
03:15 1018 30.06 847 25.01 -0.7 30.7 71 -5.3 22.4
03:20 1018 30.06 847 25.01 -0.5 31 70 -5.4 22.3
03:25 1018 30.06 847 25.01 -0.3 31.5 68 -5.5 22.2
03:30 1018 30.06 847 25.01 -0.3 31.5 68 -5.5 22.1
03:35 1018 30.06 847 25.01 -0.5 31.1 69 -5.5 22.1
03:40 1018 30.06 848 25.04 -0.6 31 68 -5.8 21.5
03:45 1018 30.06 848 25.04 -0.4 31.2 65 -6.3 20.7
03:50 1018 30.06 848 25.04 -0.4 31.4 64 -6.4 20.5
03:55 1018 30.06 848 25.04 -0.4 31.4 64 -6.4 20.5
04:00 1018 30.06 848 25.04 -0.4 31.3 64 -6.4 20.4
04:05 1018 30.06 848 25.04 -0.4 31.3 64 -6.4 20.5
04:10 1018 30.06 848 25.04 -0.3 31.5 63 -6.5 20.4
04:15 1018 30.06 848 25.04 -0.2 31.7 63 -6.4 20.5
04:20 1018 30.06 848 25.04 -0.1 31.8 63 -6.4 20.6
04:25 1018 30.06 848 25.04 -0.1 31.9 63 -6.3 20.6
04:30 1018 30.06 848 25.04 -0.1 31.8 64 -6.2 20.9
04:35 1018 30.06 848 25.04 -0.2 31.6 62 -6.7 20
04:40 1019 30.09 848 25.04 0.1 32.3 61 -6.4 20.4
04:45 1019 30.09 848 25.04 0.1 32.3 61 -6.4 20.5
04:50 1019 30.09 848 25.04 0 32 62 -6.4 20.4
04:55 1019 30.09 848 25.04 -0.1 31.8 62 -6.6 20.1
05:00 1019 30.09 848 25.04 -0.2 31.7 63 -6.4 20.5
05:05 1019 30.09 848 25.04 -0.8 30.6 69 -5.8 21.6
05:10 1019 30.09 848 25.04 -1.3 29.6 69 -6.3 20.6
05:15 1019 30.09 848 25.04 -1.2 29.9 67 -6.5 20.3
05:20 1019 30.09 848 25.04 -0.7 30.8 65 -6.5 20.2
05:25 1019 30.09 848 25.04 -0.3 31.4 64 -6.3 20.6
05:30 1019 30.09 848 25.04 0 32.1 62 -6.3 20.7
05:35 1019 30.09 848 25.04 0 32 62 -6.5 20.4
05:40 1019 30.09 848 25.04 -0.1 31.8 61 -6.7 20
05:45 1019 30.09 848 25.04 0 32 60 -6.9 19.5
05:50 1019 30.09 848 25.04 0.3 32.5 59 -6.9 19.6
05:55 1019 30.09 848 25.04 0.6 33 58 -6.7 20
06:00 1019 30.09 848 25.04 0.5 32.9 60 -6.3 20.6
06:05 1019 30.09 849 25.07 0.2 32.4 61 -6.4 20.4
06:10 1019 30.09 849 25.07 0.2 32.3 63 -6.2 20.9
06:15 1019 30.09 849 25.07 -0.4 31.2 67 -5.9 21.4
06:20 1020 30.12 849 25.07 -0.8 30.6 66 -6.3 20.7
06:25 1020 30.12 849 25.07 -0.5 31 65 -6.3 20.7
06:30 1020 30.12 849 25.07 -0.5 31.2 66 -6.1 21.1
06:35 1020 30.12 849 25.07 -0.4 31.3 65 -6.1 21
06:40 1020 30.12 849 25.07 -0.3 31.5 65 -6 21.2
06:45 1020 30.12 849 25.07 -0.3 31.5 66 -5.8 21.5
06:50 1020 30.12 849 25.07 -0.5 31 66 -6.1 21
06:55 1020 30.12 849 25.07 -0.4 31.2 65 -6.1 21
07:00 1020 30.12 849 25.07 -0.2 31.6 64 -6.2 20.8
07:05 1020 30.12 849 25.07 0.1 32.1 63 -6.1 20.9
07:10 1020 30.12 849 25.07 0.3 32.6 63 -5.9 21.3
07:15 1020 30.12 849 25.07 0.3 32.6 63 -5.9 21.4
07:20 1020 30.12 849 25.07 0.3 32.6 63 -5.9 21.3
07:25 1020 30.12 849 25.07 0.3 32.5 63 -6 21.2
07:30 1020 30.12 849 25.07 0.2 32.4 63 -6.1 21.1
07:35 1020 30.12 849 25.07 0.2 32.3 64 -5.8 21.5
07:40 1020 30.12 849 25.07 0.2 32.3 62 -6.2 20.9
07:45 1020 30.12 849 25.07 0.5 32.9 60 -6.3 20.7
07:50 1020 30.12 849 25.07 0.7 33.2 62 -5.7 21.7
07:55 1020 30.12 849 25.07 0.5 32.9 63 -5.6 21.8
08:00 1020 30.12 850 25.1 0.3 32.6 62 -6.1 21
08:05 1020 30.12 850 25.1 0.4 32.7 61 -6.3 20.6
08:10 1021 30.15 850 25.1 0.6 33 61 -6.1 20.9
08:15 1021 30.15 850 25.1 0.7 33.2 60 -6.3 20.7
08:20 1021 30.15 850 25.1 0.8 33.4 60 -6.1 21
08:25 1021 30.15 850 25.1 0.6 33 63 -5.7 21.8
08:30 1021 30.15 850 25.1 0.3 32.6 62 -6.1 21
08:35 1021 30.15 850 25.1 0.5 32.8 62 -5.9 21.4
08:40 1021 30.15 850 25.1 0.3 32.6 64 -5.7 21.7
08:45 1021 30.15 850 25.1 0.2 32.3 63 -6 21.3
08:50 1021 30.15 850 25.1 0.2 32.3 63 -6 21.2
08:55 1021 30.15 850 25.1 0.3 32.5 63 -6 21.3
09:00 1021 30.15 850 25.1 0.3 32.6 63 -5.9 21.3
09:05 1021 30.15 850 25.1 0.3 32.6 62 -6.1 20.9
09:10 1021 30.15 850 25.1 0.4 32.8 60 -6.4 20.4
09:15 1021 30.15 850 25.1 0.6 33.1 60 -6.3 20.7
09:20 1021 30.15 850 25.1 0.6 33.1 61 -6 21.2
09:25 1021 30.15 850 25.1 0.7 33.2 61 -6 21.3
09:30 1021 30.15 850 25.1 0.8 33.4 62 -5.7 21.8
09:35 1021 30.15 850 25.1 0.7 33.3 63 -5.6 21.9
09:40 1021 30.15 850 25.1 0.8 33.5 62 -5.7 21.7
09:45 1021 30.15 850 25.1 0.9 33.6 63 -5.4 22.2
09:50 1021 30.15 850 25.1 1 33.8 62 -5.6 22
09:55 1021 30.15 850 25.1 1.2 34.2 63 -5.1 22.8
10:00 1021 30.15 850 25.1 1.1 34 64 -4.9 23.2
10:05 1021 30.15 850 25.1 0.9 33.6 67 -4.5 23.9
10:10 1021 30.15 850 25.1 0.6 33 68 -4.6 23.8
10:15 1021 30.15 851 25.13 0.6 33 66 -5 23
10:20 1021 30.15 851 25.13 0.7 33.3 66 -4.8 23.3
10:25 1021 30.15 851 25.13 0.9 33.7 63 -5.3 22.5
10:30 1021 30.15 851 25.13 1.2 34.1 62 -5.3 22.5
10:35 1021 30.15 851 25.13 1.3 34.4 61 -5.4 22.3
10:40 1021 30.15 851 25.13 1.8 35.2 59 -5.4 22.3
10:45 1021 30.15 851 25.13 2.2 35.9 57 -5.5 22.1
10:50 1021 30.15 851 25.13 2.6 36.6 55 -5.6 22
10:55 1021 30.15 851 25.13 2.8 37 55 -5.3 22.5
11:00 1022 30.18 851 25.13 2.6 36.7 57 -5.1 22.9
11:05 1022 30.18 851 25.13 2.5 36.5 55 -5.6 21.9
11:10 1022 30.18 851 25.13 2.5 36.5 52 -6.4 20.4
11:15 1022 30.18 851 25.13 2.7 36.8 53 -6 21.2
11:20 1022 30.18 851 25.13 2.9 37.2 52 -6 21.1
11:25 1022 30.18 851 25.13 3.1 37.6 51 -6 21.2
11:30 1022 30.18 851 25.13 3.3 38 51 -5.8 21.6
11:35 1022 30.18 851 25.13 3.3 38 53 -5.5 22.1
11:40 1022 30.18 851 25.13 3.3 38 53 -5.4 22.2
11:45 1022 30.18 851 25.13 3.7 38.6 53 -5.1 22.9
11:50 1022 30.18 851 25.13 3.7 38.7 52 -5.3 22.4
11:55 1022 30.18 851 25.13 3.3 37.9 52 -5.5 22
12:00 1022 30.18 851 25.13 3.3 37.9 52 -5.6 22
12:05 1021 30.15 851 25.13 3.6 38.5 49 -6.2 20.8
12:10 1022 30.18 851 25.13 4.1 39.3 47 -6.2 20.8
12:15 1021 30.15 851 25.13 5 41 43 -6.6 20.2
12:20 1021 30.15 851 25.13 4.7 40.4 46 -5.8 21.5
12:25 1021 30.15 851 25.13 4.7 40.4 46 -6.1 21
12:30 1021 30.15 851 25.13 5.2 41.3 44 -6.2 20.8
12:35 1021 30.15 851 25.13 5.9 42.6 41 -6.4 20.5
12:40 1021 30.15 850 25.1 5.4 41.8 42 -6.5 20.3
12:45 1021 30.15 850 25.1 5.9 42.5 40 -6.6 20.2
12:50 1021 30.15 850 25.1 6.6 43.9 38 -6.7 19.9
12:55 1021 30.15 850 25.1 7 44.6 37 -6.7 20
13:00 1021 30.15 850 25.1 6.9 44.5 37 -6.9 19.6
13:05 1021 30.15 850 25.1 7 44.5 38 -6.5 20.2
13:10 1021 30.15 850 25.1 6.9 44.5 38 -6.4 20.4
13:15 1021 30.15 850 25.1 7.2 45 37 -6.5 20.4
13:20 1021 30.15 850 25.1 7.1 44.7 43 -4.6 23.6
13:25 1021 30.15 850 25.1 6.6 44 41 -5.6 21.9
13:30 1021 30.15 850 25.1 7.1 44.8 42 -5 23
13:35 1021 30.15 850 25.1 6.2 43.1 43 -5.4 22.3
13:40 1021 30.15 850 25.1 6.5 43.8 37 -7 19.4
13:45 1021 30.15 850 25.1 7.5 45.6 35 -6.9 19.6
13:50 1021 30.15 850 25.1 6.9 44.3 38 -6.6 20.1
13:55 1021 30.15 850 25.1 6.4 43.5 33 -8.6 16.5
14:00 1021 30.15 850 25.1 7.5 45.5 33 -7.8 17.9
14:05 1021 30.15 850 25.1 7.1 44.7 35 -7.4 18.6
14:10 1021 30.15 850 25.1 6.4 43.4 36 -7.7 18.2
14:15 1020 30.12 850 25.1 6.3 43.3 36 -7.7 18.2
14:20 1020 30.12 850 25.1 6.2 43.2 36 -7.9 17.8
14:25 1020 30.12 850 25.1 6.9 44.4 32 -8.6 16.5
14:30 1020 30.12 849 25.07 7.8 46 31 -8.5 16.6
14:35 1020 30.12 849 25.07 7.9 46.2 30 -8.7 16.4
14:40 1020 30.12 849 25.07 7.8 46.1 31 -8.3 17
14:45 1020 30.12 849 25.07 7.7 45.8 31 -8.5 16.7
14:50 1020 30.12 849 25.07 7.3 45.1 32 -8.1 17.3
14:55 1020 30.12 849 25.07 7.4 45.3 33 -7.8 17.9
15:00 1020 30.12 849 25.07 7.4 45.3 33 -7.7 18.2
15:05 1020 30.12 849 25.07 7.6 45.7 31 -8.3 17.1
15:10 1020 30.12 849 25.07 7.2 45 33 -7.8 18
15:15 1020 30.12 849 25.07 6.8 44.2 33 -8.3 17.1
15:20 1020 30.12 849 25.07 7.3 45.2 32 -8.5 16.8
15:25 1020 30.12 849 25.07 8 46.3 30 -8.5 16.8
15:30 1020 30.12 849 25.07 7.4 45.3 32 -8.1 17.4
15:35 1020 30.12 849 25.07 7.9 46.2 30 -8.8 16.2
15:40 1020 30.12 849 25.07 7.4 45.3 32 -8.3 17.1
15:45 1020 30.12 849 25.07 7.7 45.8 32 -8 17.6
15:50 1020 30.12 849 25.07 7.6 45.6 32 -8.2 17.3
15:55 1020 30.12 849 25.07 7.7 45.8 31 -8.4 17
16:00 1020 30.12 849 25.07 8 46.3 30 -8.4 16.9
16:05 1020 30.12 849 25.07 8.2 46.7 30 -8.4 16.9
16:10 1020 30.12 849 25.07 7.9 46.2 31 -8.2 17.2
16:15 1020 30.12 849 25.07 7.8 46 31 -8.3 17.1
16:20 1020 30.12 849 25.07 7.7 45.8 31 -8.5 16.7
16:25 1020 30.12 849 25.07 7.6 45.6 32 -8.2 17.2
16:30 1020 30.12 850 25.1 7.1 44.7 32 -8.5 16.7
16:35 1020 30.12 850 25.1 7 44.6 33 -8.1 17.5
16:40 1020 30.12 850 25.1 7 44.5 33 -8 17.5
16:45 1020 30.12 850 25.1 6.4 43.5 34 -8.5 16.8
16:50 1020 30.12 850 25.1 6.7 44 33 -8.4 16.8
16:55 1020 30.12 850 25.1 7 44.7 33 -8.2 17.2
17:00 1020 30.12 850 25.1 6.7 44.1 34 -8.2 17.3
17:05 1020 30.12 850 25.1 6.4 43.5 34 -8.4 16.9
17:10 1020 30.12 850 25.1 6.2 43.2 35 -8 17.5
17:15 1020 30.12 850 25.1 6.4 43.5 34 -8.4 16.9
17:20 1020 30.12 850 25.1 6.3 43.4 34 -8.4 16.9
17:25 1020 30.12 850 25.1 6.5 43.7 35 -8 17.7
17:30 1020 30.12 850 25.1 6.5 43.7 34 -8.2 17.2
17:35 1020 30.12 850 25.1 6.2 43.2 36 -7.9 17.8
17:40 1020 30.12 850 25.1 5.6 42.1 37 -7.9 17.9
17:45 1020 30.12 850 25.1 5.2 41.3 39 -7.8 18
17:50 1020 30.12 850 25.1 5 41 39 -8 17.7
17:55 1020 30.12 850 25.1 4.8 40.6 43 -6.8 19.8
18:00 1020 30.12 849 25.07 4.3 39.7 46 -6.2 20.8
18:05 1020 30.12 849 25.07 3.7 38.7 49 -6.1 21.1
18:10 1020 30.12 849 25.07 3.2 37.8 50 -6.2 20.9
18:15 1020 30.12 849 25.07 2.8 37 52 -6.2 20.8
18:20 1020 30.12 849 25.07 2.3 36.1 52 -6.5 20.2
18:25 1020 30.12 849 25.07 1.9 35.4 54 -6.4 20.4
18:30 1020 30.12 849 25.07 1.6 34.9 55 -6.3 20.6
18:35 1020 30.12 849 25.07 1.4 34.5 56 -6.4 20.4
18:40 1020 30.12 849 25.07 1.1 34 57 -6.4 20.5
18:45 1020 30.12 849 25.07 0.9 33.7 59 -6.2 20.9
18:50 1020 30.12 849 25.07 0.6 33.1 59 -6.4 20.5
18:55 1020 30.12 849 25.07 0.6 33.2 57 -7 19.4
19:00 1020 30.12 849 25.07 1.1 33.9 56 -6.8 19.8
19:05 1020 30.12 849 25.07 0.8 33.5 57 -6.8 19.7
19:10 1020 30.12 849 25.07 0.7 33.3 57 -6.8 19.8
19:15 1020 30.12 849 25.07 0.6 33 55 -7.4 18.7
19:20 1020 30.12 849 25.07 1.2 34.1 55 -7 19.5
19:25 1020 30.12 849 25.07 1 33.8 55 -7.1 19.2
19:30 1020 30.12 849 25.07 1 33.9 55 -7.1 19.2
19:35 1020 30.12 849 25.07 0.7 33.2 56 -7.1 19.3
19:40 1020 30.12 849 25.07 0.7 33.2 57 -6.8 19.8
19:45 1020 30.12 849 25.07 0.4 32.8 58 -6.8 19.7
19:50 1020 30.12 849 25.07 0.4 32.8 57 -7 19.4
19:55 1020 30.12 849 25.07 0.6 33.2 57 -7 19.4
20:00 1020 30.12 849 25.07 0.8 33.4 56 -7.1 19.3
20:05 1020 30.12 849 25.07 0.8 33.4 57 -6.8 19.8
20:10 1020 30.12 849 25.07 0.5 32.9 57 -7 19.4
20:15 1020 30.12 849 25.07 0.3 32.6 58 -7 19.4
20:20 1020 30.12 849 25.07 0.3 32.5 59 -6.8 19.7
20:25 1020 30.12 849 25.07 0.2 32.4 58 -7.1 19.3
20:30 1020 30.12 849 25.07 0.3 32.5 59 -6.9 19.6
20:35 1020 30.12 849 25.07 0.2 32.3 59 -6.9 19.6
20:40 1020 30.12 849 25.07 0.2 32.3 59 -6.9 19.5
20:45 1020 30.12 849 25.07 0.2 32.4 59 -6.9 19.6
20:50 1020 30.12 849 25.07 0.4 32.7 57 -7.1 19.2
20:55 1020 30.12 849 25.07 0.4 32.7 58 -7 19.3
21:00 1020 30.12 849 25.07 0.4 32.6 58 -7 19.5
21:05 1020 30.12 849 25.07 0.2 32.4 58 -7 19.4
21:10 1020 30.12 849 25.07 0.3 32.5 58 -7.1 19.3
21:15 1020 30.12 849 25.07 0.3 32.5 58 -7.1 19.1
21:20 1020 30.12 849 25.07 0.4 32.7 57 -7.1 19.2
21:25 1020 30.12 849 25.07 0.5 32.9 57 -7.1 19.2
21:30 1020 30.12 849 25.07 0.4 32.7 57 -7.1 19.3
21:35 1020 30.12 849 25.07 0.3 32.5 58 -7.1 19.2
21:40 1020 30.12 849 25.07 0.3 32.5 57 -7.2 19
21:45 1020 30.12 849 25.07 0.3 32.5 58 -7.1 19.3
21:50 1020 30.12 849 25.07 0.2 32.4 57 -7.2 19
21:55 1020 30.12 849 25.07 0.2 32.4 57 -7.3 18.9
22:00 1020 30.12 849 25.07 0.3 32.5 57 -7.3 18.9
22:05 1020 30.12 849 25.07 0.3 32.6 56 -7.4 18.7
22:10 1020 30.12 849 25.07 0.4 32.7 56 -7.3 18.9
22:15 1020 30.12 849 25.07 0.4 32.7 56 -7.4 18.7
22:20 1020 30.12 849 25.07 0.4 32.8 56 -7.4 18.7
22:25 1020 30.12 849 25.07 0.4 32.8 56 -7.4 18.7
22:30 1020 30.12 849 25.07 0.3 32.6 56 -7.5 18.5
22:35 1020 30.12 849 25.07 0.4 32.7 56 -7.4 18.7
22:40 1020 30.12 849 25.07 0.3 32.5 56 -7.5 18.6
22:45 1020 30.12 849 25.07 0.3 32.5 55 -7.7 18.2
22:50 1020 30.12 849 25.07 0.5 32.9 54 -7.7 18.1
22:55 1019 30.09 849 25.07 0.5 33 55 -7.5 18.6
23:00 1019 30.09 849 25.07 0.4 32.7 55 -7.6 18.3
23:05 1019 30.09 849 25.07 0.5 32.8 55 -7.6 18.2
23:10 1019 30.09 849 25.07 0.5 32.9 54 -7.8 18
23:15 1019 30.09 849 25.07 0.6 33 54 -7.7 18.1
23:20 1019 30.09 849 25.07 0.5 32.9 54 -7.8 17.9
23:25 1019 30.09 849 25.07 0.5 32.9 54 -7.7 18.1
23:30 1019 30.09 849 25.07 0.4 32.8 54 -7.7 18.1
23:35 1019 30.09 849 25.07 0.3 32.6 55 -7.8 18
23:40 1019 30.09 848 25.04 0.2 32.4 55 -7.8 17.9
23:45 1019 30.09 848 25.04 0.2 32.3 55 -7.8 17.9
23:50 1019 30.09 848 25.04 0.2 32.4 55 -7.9 17.8
23:55 1019 30.09 848 25.04 0.3 32.5 54 -8 17.7
24:00 1019 30.09 848 25.04 0.3 32.6 54 -8 17.5